createdAt,value
2023-04-16T05:04:47.994Z,6.54
2023-04-16T05:07:16.758Z,6.92
2023-04-16T05:09:45.021Z,7.31
2023-04-16T05:12:13.598Z,7.74
2023-04-16T05:14:41.931Z,7.75
2023-04-16T05:17:11.040Z,8.33
2023-04-16T05:19:39.433Z,9.17
2023-04-16T05:22:09.338Z,10.37
2023-04-16T05:24:37.659Z,11.44
2023-04-16T05:27:07.441Z,11.09
2023-04-16T05:29:35.815Z,12.57
2023-04-16T05:32:04.723Z,12.07
2023-04-16T05:34:33.069Z,10.75
2023-04-16T05:37:01.562Z,10.66
2023-04-16T05:39:31.744Z,10.28
2023-04-16T05:42:00.255Z,9.05
2023-04-16T05:44:28.580Z,8.78
2023-04-16T05:46:56.956Z,9.04
2023-04-16T05:49:25.419Z,8.34
2023-04-16T05:51:53.715Z,8.23
2023-04-16T05:54:22.054Z,7.98
2023-04-16T05:56:52.460Z,8.20
2023-04-16T05:59:21.080Z,8.32
2023-04-16T06:01:50.120Z,8.98
2023-04-16T06:04:19.715Z,9.33
2023-04-16T06:06:48.152Z,9.07
2023-04-16T06:09:16.812Z,8.42
2023-04-16T06:11:45.622Z,8.62
2023-04-16T06:14:15.451Z,9.16
2023-04-16T06:16:43.796Z,8.92
2023-04-16T06:19:12.452Z,8.97
2023-04-16T06:21:40.882Z,9.53
2023-04-16T06:24:09.142Z,10.08
2023-04-16T06:26:37.524Z,10.62
2023-04-16T06:29:05.974Z,11.82
2023-04-16T06:31:35.962Z,11.87
2023-04-16T06:34:04.931Z,11.62
2023-04-16T06:36:33.839Z,13.83
2023-04-16T06:39:02.351Z,13.69
2023-04-16T06:41:30.955Z,14.68
2023-04-16T06:43:59.352Z,13.85
2023-04-16T06:46:27.886Z,14.34
2023-04-16T06:48:57.846Z,13.78
2023-04-16T06:51:26.871Z,15.11
2023-04-16T06:53:55.260Z,16.27
2023-04-16T06:56:23.700Z,13.02
2023-04-16T06:58:52.052Z,14.29
2023-04-16T07:01:20.643Z,15.98
2023-04-16T07:03:49.279Z,17.60
2023-04-16T07:06:19.351Z,17.73
2023-04-16T07:08:48.362Z,17.21
2023-04-16T07:11:17.377Z,15.76
2023-04-16T07:13:45.628Z,13.35
2023-04-16T07:16:14.239Z,12.20
2023-04-16T07:18:42.587Z,11.83
2023-04-16T07:21:11.002Z,12.45
2023-04-16T07:23:40.914Z,12.64
2023-04-16T07:26:09.404Z,13.59
2023-04-16T07:28:37.712Z,13.72
2023-04-16T07:31:06.265Z,14.80
2023-04-16T07:33:36.325Z,16.36
2023-04-16T07:36:04.659Z,16.99
2023-04-16T07:38:34.703Z,16.61
2023-04-16T07:41:05.493Z,13.92
2023-04-16T07:43:33.777Z,14.04
2023-04-16T07:46:02.531Z,14.03
2023-04-16T07:48:31.209Z,12.98
2023-04-16T07:50:59.564Z,13.14
2023-04-16T07:53:27.841Z,13.85
2023-04-16T07:55:56.983Z,14.46
2023-04-16T07:58:26.681Z,15.03
2023-04-16T08:00:55.032Z,14.67
2023-04-16T08:03:24.185Z,14.77
2023-04-16T08:05:52.810Z,14.46
2023-04-16T08:08:21.235Z,14.21
2023-04-16T08:10:49.892Z,14.31
2023-04-16T08:13:18.431Z,14.27
2023-04-16T08:15:48.304Z,13.98
2023-04-16T08:18:16.742Z,13.29
2023-04-16T08:20:45.552Z,14.28
2023-04-16T08:23:13.871Z,15.54
2023-04-16T08:25:42.266Z,16.04
2023-04-16T08:28:10.525Z,17.17
2023-04-16T08:30:38.928Z,15.88
2023-04-16T08:33:09.017Z,15.95
2023-04-16T08:35:37.436Z,15.93
2023-04-16T08:38:07.555Z,15.41
2023-04-16T08:40:40.302Z,15.28
2023-04-16T08:43:12.479Z,14.45
2023-04-16T08:45:42.945Z,16.85
2023-04-16T08:48:13.479Z,18.32
2023-04-16T08:50:42.737Z,17.74
2023-04-16T08:53:12.921Z,15.99
2023-04-16T08:55:43.000Z,15.54
2023-04-16T08:58:15.583Z,14.64
2023-04-16T09:00:46.277Z,15.51
2023-04-16T09:03:16.371Z,14.62
2023-04-16T09:05:45.617Z,15.78
2023-04-16T09:08:14.210Z,17.72
2023-04-16T09:10:42.970Z,16.22
2023-04-16T09:13:13.652Z,16.14
2023-04-16T09:15:43.065Z,17.38
2023-04-16T09:18:12.260Z,16.27
2023-04-16T09:20:42.210Z,17.13
2023-04-16T09:23:11.154Z,17.29
2023-04-16T09:25:40.250Z,17.75
2023-04-16T09:28:08.705Z,16.86
2023-04-16T09:30:37.320Z,16.91
2023-04-16T09:33:17.682Z,16.06
2023-04-16T09:35:51.747Z,16.85
2023-04-16T09:38:20.667Z,15.56
2023-04-16T09:40:48.994Z,15.97
2023-04-16T09:43:18.601Z,15.98
2023-04-16T09:45:52.075Z,16.06
2023-04-16T09:48:30.369Z,15.17
2023-04-16T09:51:00.769Z,15.66
2023-04-16T09:53:30.382Z,16.03
2023-04-16T09:55:59.166Z,17.89
2023-04-16T09:58:29.489Z,16.15
2023-04-16T10:00:58.756Z,15.10
2023-04-16T10:03:32.237Z,16.97
2023-04-16T10:06:03.796Z,16.11
2023-04-16T10:08:32.219Z,16.53
2023-04-16T10:11:01.031Z,15.77
2023-04-16T10:13:31.291Z,14.43
2023-04-16T10:16:00.662Z,14.65
2023-04-16T10:18:29.261Z,14.78
2023-04-16T10:20:59.411Z,14.96
2023-04-16T10:23:29.390Z,14.36
2023-04-16T10:25:58.610Z,15.93
2023-04-16T10:28:29.347Z,16.92
2023-04-16T10:30:58.751Z,16.42
2023-04-16T10:33:32.794Z,15.65
2023-04-16T10:36:11.986Z,16.82
2023-04-16T10:38:42.720Z,16.56
2023-04-16T10:41:10.982Z,15.80
2023-04-16T10:43:44.095Z,15.41
2023-04-16T10:46:24.696Z,15.91
2023-04-16T10:48:56.619Z,16.93
2023-04-16T10:51:27.972Z,17.57
2023-04-16T10:53:58.730Z,16.40
2023-04-16T10:56:28.183Z,15.64
2023-04-16T10:58:57.548Z,16.95
2023-04-16T11:01:32.955Z,17.88
2023-04-16T11:04:04.974Z,18.63
2023-04-16T11:06:33.553Z,19.34
2023-04-16T11:09:05.879Z,19.39
2023-04-16T11:11:39.892Z,17.50
2023-04-16T11:14:09.982Z,17.06
2023-04-16T11:16:42.174Z,17.16
2023-04-16T11:19:18.233Z,17.48
2023-04-16T11:21:47.186Z,17.18
2023-04-16T11:24:17.016Z,17.08
2023-04-16T11:26:45.555Z,15.97
2023-04-16T11:29:16.451Z,15.48
2023-04-16T11:31:46.726Z,14.81
2023-04-16T11:34:15.675Z,14.66
2023-04-16T11:36:47.370Z,15.51
2023-04-16T11:39:17.726Z,15.35
2023-04-16T11:41:46.334Z,15.52
2023-04-16T11:44:25.410Z,16.18
2023-04-16T11:46:55.052Z,16.00
2023-04-16T11:49:29.815Z,16.00
2023-04-16T11:51:58.647Z,15.64
2023-04-16T11:54:34.872Z,15.73
2023-04-16T11:57:04.509Z,14.60
2023-04-16T11:59:33.456Z,14.61
2023-04-16T12:02:01.904Z,14.64
2023-04-16T12:04:30.585Z,14.57
2023-04-16T12:07:12.260Z,14.87
2023-04-16T12:09:42.991Z,14.52
2023-04-16T12:12:27.784Z,14.27
2023-04-16T12:14:57.393Z,14.48
2023-04-16T12:17:26.279Z,14.04
2023-04-16T12:19:57.711Z,13.75
2023-04-16T12:22:30.413Z,14.00
2023-04-16T12:25:02.987Z,14.34
2023-04-16T12:27:49.539Z,13.88
2023-04-16T12:30:22.572Z,13.97
2023-04-16T12:32:52.748Z,13.82
2023-04-16T12:35:36.049Z,13.90
2023-04-16T12:38:04.806Z,13.86
2023-04-16T12:40:36.040Z,13.72
2023-04-16T12:43:04.491Z,13.76
2023-04-16T12:45:32.865Z,14.07
2023-04-16T12:48:01.865Z,14.33
2023-04-16T12:50:30.250Z,13.89
2023-04-16T12:52:59.025Z,14.23
2023-04-16T12:55:27.583Z,14.01
2023-04-16T12:57:57.237Z,13.93
2023-04-16T13:00:26.026Z,14.00
2023-04-16T13:02:54.510Z,14.04
2023-04-16T13:05:22.943Z,13.52
2023-04-16T13:07:51.301Z,13.65
2023-04-16T13:10:19.849Z,13.72
2023-04-16T13:12:49.326Z,13.74
2023-04-16T13:15:19.186Z,13.52
2023-04-16T13:17:47.743Z,13.39
2023-04-16T13:20:16.622Z,13.72
2023-04-16T13:22:45.083Z,13.82
2023-04-16T13:25:13.454Z,13.86
2023-04-16T13:27:41.887Z,13.64
2023-04-16T13:30:10.926Z,13.46
2023-04-16T13:32:41.335Z,13.55
2023-04-16T13:35:11.981Z,13.62
2023-04-16T13:37:40.449Z,13.49
2023-04-16T13:40:10.262Z,13.36
2023-04-16T13:42:38.748Z,13.46
2023-04-16T13:45:09.490Z,13.35
2023-04-16T13:47:37.957Z,13.47
2023-04-16T13:50:08.519Z,13.40
2023-04-16T13:52:37.681Z,13.40
2023-04-16T13:55:06.661Z,13.52
2023-04-16T13:57:35.202Z,13.45
2023-04-16T14:00:04.619Z,13.42
2023-04-16T14:02:35.165Z,13.45
2023-04-16T14:05:03.833Z,13.58
2023-04-16T14:07:35.661Z,13.69
2023-04-16T14:10:04.039Z,13.59
2023-04-16T14:12:32.945Z,13.50
2023-04-16T14:15:02.260Z,13.37
2023-04-16T14:17:32.280Z,13.38
2023-04-16T14:20:00.852Z,13.44
2023-04-16T14:22:29.170Z,13.25
2023-04-16T14:24:59.572Z,13.30
2023-04-16T14:27:28.865Z,13.22
2023-04-16T14:29:57.763Z,13.21
2023-04-16T14:32:26.261Z,13.23
2023-04-16T14:34:54.780Z,13.24
2023-04-16T14:37:23.183Z,13.24
2023-04-16T14:39:51.903Z,13.18
2023-04-16T14:42:22.563Z,13.16
2023-04-16T14:44:52.307Z,13.12
2023-04-16T14:47:20.967Z,13.08
2023-04-16T14:49:49.287Z,12.95
2023-04-16T14:52:18.202Z,12.86
2023-04-16T14:54:47.909Z,12.79
2023-04-16T14:57:17.933Z,12.68
2023-04-16T14:59:48.435Z,12.66
2023-04-16T15:02:17.229Z,12.65
2023-04-16T15:04:46.008Z,12.57
2023-04-16T15:07:14.355Z,12.61
2023-04-16T15:09:42.983Z,12.56
2023-04-16T15:12:11.893Z,12.56
2023-04-16T15:14:40.337Z,12.58
2023-04-16T15:17:10.680Z,12.60
2023-04-16T15:19:39.098Z,12.64
2023-04-16T15:22:07.436Z,12.66
2023-04-16T15:24:35.799Z,12.65
2023-04-16T15:27:06.016Z,12.57
2023-04-16T15:29:34.587Z,12.49
2023-04-16T15:32:02.913Z,12.49
2023-04-16T15:34:32.775Z,12.45
2023-04-16T15:37:01.399Z,12.44
2023-04-16T15:39:29.931Z,12.47
2023-04-16T15:42:01.877Z,12.43
2023-04-16T15:44:31.854Z,12.40
2023-04-16T15:47:00.560Z,12.31
2023-04-16T15:49:28.903Z,12.32
2023-04-16T15:51:58.700Z,12.28
2023-04-16T15:54:27.356Z,12.26
2023-04-16T15:56:55.935Z,12.20
2023-04-16T15:59:24.407Z,12.13
2023-04-16T16:01:53.530Z,12.10
2023-04-16T16:04:23.279Z,12.05
2023-04-16T16:06:52.008Z,12.03
2023-04-16T16:09:26.386Z,11.99
2023-04-16T16:11:55.714Z,11.90
2023-04-16T16:14:24.491Z,11.84
2023-04-16T16:16:52.850Z,11.74
2023-04-16T16:19:21.259Z,11.70
2023-04-16T16:21:49.670Z,11.60
2023-04-16T16:24:18.585Z,11.52
2023-04-16T16:26:48.399Z,11.48
2023-04-16T16:29:16.899Z,11.45
2023-04-16T16:31:46.327Z,11.37
2023-04-16T16:34:20.771Z,11.32
2023-04-16T16:36:50.308Z,11.28
2023-04-16T16:39:22.448Z,11.24
2023-04-16T16:41:52.935Z,11.21
2023-04-16T16:44:21.534Z,11.16
2023-04-16T16:46:50.241Z,11.17
2023-04-16T16:49:19.182Z,11.12
2023-04-16T16:51:48.286Z,11.08
2023-04-16T16:54:16.931Z,10.70
2023-04-16T16:56:45.391Z,10.48
2023-04-16T16:59:15.195Z,10.53
2023-04-16T17:01:43.473Z,10.25
2023-04-16T17:04:12.046Z,10.48
2023-04-16T17:06:40.647Z,10.28
2023-04-16T17:09:09.082Z,10.02
2023-04-16T17:11:37.834Z,9.75
2023-04-16T17:14:06.514Z,9.64
2023-04-16T17:16:36.934Z,9.53
2023-04-16T17:19:05.989Z,9.45
2023-04-16T17:21:34.414Z,9.36
2023-04-16T17:24:02.821Z,9.37
2023-04-16T17:26:32.055Z,9.27
2023-04-16T17:29:00.717Z,9.46
2023-04-16T17:31:29.137Z,9.41
2023-04-16T17:33:59.735Z,9.30
2023-04-16T17:36:28.095Z,9.32
2023-04-16T17:38:56.944Z,9.10
2023-04-16T17:41:25.443Z,9.17
2023-04-16T17:43:53.814Z,9.24
2023-04-16T17:46:22.161Z,9.42
2023-04-16T17:48:50.675Z,9.16
2023-04-16T17:51:20.491Z,9.20
2023-04-16T17:53:48.887Z,9.22
2023-04-16T17:56:17.318Z,9.43
2023-04-16T17:58:45.743Z,9.39
2023-04-16T18:01:14.088Z,9.66
2023-04-16T18:03:44.534Z,9.84
2023-04-16T18:06:13.130Z,9.52
2023-04-16T18:08:42.832Z,9.46
2023-04-16T18:11:12.047Z,9.60
2023-04-16T18:13:40.305Z,9.28
2023-04-16T18:16:16.781Z,9.49
2023-04-16T18:18:45.698Z,9.38
2023-04-16T18:21:14.546Z,9.27
2023-04-16T18:23:44.465Z,9.06
2023-04-16T18:26:12.929Z,8.77
2023-04-16T18:28:41.658Z,8.86
2023-04-16T18:31:10.964Z,8.89
2023-04-16T18:33:55.737Z,8.60
2023-04-16T18:36:26.234Z,8.62
2023-04-16T18:41:28.488Z,8.60
2023-04-16T18:43:56.936Z,8.85
2023-04-16T18:46:25.479Z,8.58
2023-04-16T18:48:53.994Z,8.54
2023-04-16T18:51:22.387Z,8.69
2023-04-16T18:53:51.397Z,8.69
2023-04-16T18:56:21.285Z,8.61
2023-04-16T18:58:49.705Z,8.58
2023-04-16T19:01:18.111Z,8.62
2023-04-16T19:03:46.725Z,8.58
2023-04-16T19:06:15.125Z,8.54
2023-04-16T19:08:43.409Z,8.33
2023-04-16T19:11:11.916Z,8.31
2023-04-16T19:13:43.160Z,8.14
2023-04-16T19:16:12.524Z,8.07
2023-04-16T19:18:40.925Z,7.98
2023-04-16T19:21:11.001Z,7.76
2023-04-16T19:23:39.551Z,7.90
2023-04-16T19:26:08.113Z,7.89
2023-04-16T19:28:36.385Z,7.96
2023-04-16T19:31:06.603Z,7.92
2023-04-16T19:33:35.091Z,8.10
2023-04-16T19:36:03.568Z,8.21
2023-04-16T19:38:32.813Z,8.61
2023-04-16T19:41:01.239Z,8.55
2023-04-16T19:43:31.112Z,8.86
2023-04-16T19:45:59.849Z,9.24
2023-04-16T19:48:30.518Z,9.46
2023-04-16T19:51:02.317Z,9.53
2023-04-16T19:53:30.571Z,9.47
2023-04-16T19:55:58.882Z,9.53
2023-04-16T19:58:27.525Z,9.62
2023-04-16T20:00:56.493Z,9.62
2023-04-16T20:03:24.975Z,9.49
2023-04-16T20:05:54.913Z,9.60
2023-04-16T20:08:23.146Z,9.69
2023-04-16T20:10:51.451Z,9.72
2023-04-16T20:13:19.829Z,9.58
2023-04-16T20:15:48.484Z,9.75
2023-04-16T20:18:18.174Z,9.72
2023-04-16T20:20:47.280Z,9.64
2023-04-16T20:23:17.020Z,9.77
2023-04-16T20:25:46.332Z,9.68
2023-04-16T20:28:16.480Z,9.67
2023-04-16T20:30:44.884Z,9.78
2023-04-16T20:33:13.211Z,9.73
2023-04-16T20:35:41.874Z,9.66
2023-04-16T20:38:10.379Z,9.79
2023-04-16T20:40:42.073Z,9.81
2023-04-16T20:43:14.484Z,9.72
2023-04-16T20:45:46.350Z,9.58
2023-04-16T20:48:14.704Z,9.74
2023-04-16T20:50:43.613Z,9.76
2023-04-16T20:53:13.242Z,9.61
2023-04-16T20:55:45.541Z,9.34
2023-04-16T20:58:14.914Z,9.39
2023-04-16T21:00:43.241Z,9.53
2023-04-16T21:03:12.198Z,9.51
2023-04-16T21:05:42.016Z,9.45
2023-04-16T21:08:10.353Z,9.39
2023-04-16T21:10:40.393Z,9.48
2023-04-16T21:13:12.489Z,9.49
2023-04-16T21:15:43.007Z,9.45
2023-04-16T21:18:13.372Z,9.36
2023-04-16T21:20:42.768Z,9.44
2023-04-16T21:23:12.272Z,9.40
2023-04-16T21:25:40.989Z,9.37
2023-04-16T21:28:13.616Z,9.38
2023-04-16T21:30:43.754Z,9.34
2023-04-16T21:33:15.074Z,9.29
2023-04-16T21:35:43.803Z,9.15
2023-04-16T21:38:12.631Z,9.04
2023-04-16T21:40:41.645Z,9.25
2023-04-16T21:43:13.377Z,9.21
2023-04-16T21:45:42.228Z,9.35
2023-04-16T21:48:10.553Z,9.24
2023-04-16T21:50:39.114Z,9.29
2023-04-16T21:53:07.770Z,9.13
2023-04-16T21:55:36.421Z,8.97
2023-04-16T21:58:05.350Z,8.96
2023-04-16T22:00:35.126Z,9.01
2023-04-16T22:03:04.435Z,9.13
2023-04-16T22:05:33.435Z,9.09
2023-04-16T22:08:10.913Z,9.06
2023-04-16T22:10:49.764Z,9.07
2023-04-16T22:13:18.210Z,9.29
2023-04-16T22:15:48.070Z,9.15
2023-04-16T22:18:16.454Z,9.10
2023-04-16T22:20:47.229Z,8.88
2023-04-16T22:23:15.991Z,8.88
2023-04-16T22:25:44.802Z,8.98
2023-04-16T22:28:13.063Z,8.96
2023-04-16T22:30:41.473Z,8.85
2023-04-16T22:33:11.347Z,8.80
2023-04-16T22:35:40.164Z,8.69
2023-04-16T22:38:09.049Z,8.86
2023-04-16T22:40:37.435Z,8.84
2023-04-16T22:43:05.949Z,8.71
2023-04-16T22:45:34.783Z,8.90
2023-04-16T22:48:03.056Z,8.98
2023-04-16T22:50:32.832Z,8.92
2023-04-16T22:53:01.267Z,8.84
2023-04-16T22:55:29.597Z,8.79
2023-04-16T22:58:01.412Z,8.66
2023-04-16T23:00:29.804Z,8.75
2023-04-16T23:02:58.104Z,8.53
2023-04-16T23:05:26.669Z,8.66
2023-04-16T23:07:56.928Z,8.73
2023-04-16T23:10:25.159Z,8.61
2023-04-16T23:12:53.809Z,8.59
2023-04-16T23:15:22.025Z,8.55
2023-04-16T23:17:50.921Z,8.34
2023-04-16T23:20:19.549Z,8.35
2023-04-16T23:22:47.943Z,8.47
2023-04-16T23:25:18.203Z,8.24
2023-04-16T23:27:46.528Z,8.35
2023-04-16T23:30:15.949Z,8.27
2023-04-16T23:32:44.296Z,8.44
2023-04-16T23:35:12.826Z,8.21
2023-04-16T23:37:41.579Z,8.20
2023-04-16T23:40:11.623Z,8.33
2023-04-16T23:42:41.478Z,8.38
2023-04-16T23:45:11.118Z,8.37
2023-04-16T23:47:40.301Z,8.33
2023-04-16T23:50:09.259Z,8.27
2023-04-16T23:52:37.654Z,8.21
2023-04-16T23:55:06.755Z,8.20
2023-04-16T23:57:35.210Z,8.17
